createdAt,value
2023-03-28T00:01:54.567Z,1.60
2023-03-28T00:04:22.204Z,1.50
2023-03-28T00:06:49.689Z,1.40
2023-03-28T00:09:17.220Z,1.40
2023-03-28T00:11:44.798Z,1.60
2023-03-28T00:14:12.313Z,1.50
2023-03-28T00:16:39.839Z,1.50
2023-03-28T00:19:07.696Z,1.40
2023-03-28T00:21:37.904Z,1.30
2023-03-28T00:24:05.427Z,1.30
2023-03-28T00:26:33.056Z,1.20
2023-03-28T00:29:03.145Z,1.20
2023-03-28T00:31:30.784Z,1.10
2023-03-28T00:33:58.983Z,1.10
2023-03-28T00:36:29.254Z,1.10
2023-03-28T00:38:56.721Z,1.00
2023-03-28T00:41:24.311Z,1.00
2023-03-28T00:43:51.841Z,1.00
2023-03-28T00:46:30.867Z,0.90
2023-03-28T00:48:58.382Z,0.90
2023-03-28T00:51:25.903Z,0.90
2023-03-28T00:53:53.540Z,0.90
2023-03-28T00:56:21.075Z,0.80
2023-03-28T00:58:48.596Z,0.80
2023-03-28T01:01:16.291Z,0.70
2023-03-28T01:03:43.828Z,1.00
2023-03-28T01:06:11.285Z,1.00
2023-03-28T01:08:38.863Z,0.90
2023-03-28T01:11:06.377Z,1.10
2023-03-28T01:13:33.962Z,1.00
2023-03-28T01:16:01.737Z,0.90
2023-03-28T01:18:29.024Z,0.90
2023-03-28T01:21:02.132Z,0.80
2023-03-28T01:23:50.378Z,1.00
2023-03-28T01:26:38.563Z,0.90
2023-03-28T01:29:20.804Z,0.80
2023-03-28T01:31:54.170Z,0.70
2023-03-28T01:34:58.099Z,0.60
2023-03-28T01:37:37.123Z,0.60
2023-03-28T01:40:34.944Z,0.50
2023-03-28T01:43:20.456Z,0.50
2023-03-28T01:45:48.052Z,0.40
2023-03-28T01:48:15.574Z,0.40
2023-03-28T01:50:45.736Z,0.60
2023-03-28T01:53:22.019Z,0.60
2023-03-28T01:56:04.387Z,0.50
2023-03-28T01:58:37.736Z,0.50
2023-03-28T02:01:20.147Z,0.40
2023-03-28T02:03:47.638Z,0.30
2023-03-28T02:06:15.172Z,0.30
2023-03-28T02:08:42.765Z,0.20
2023-03-28T02:11:10.294Z,0.20
2023-03-28T02:13:37.839Z,0.40
2023-03-28T02:16:05.496Z,0.40
2023-03-28T02:18:32.998Z,0.30
2023-03-28T02:21:00.527Z,0.30
2023-03-28T02:23:28.097Z,0.20
2023-03-28T02:25:55.618Z,0.40
2023-03-28T02:28:23.148Z,0.40
2023-03-28T02:30:50.719Z,0.40
2023-03-28T02:33:45.240Z,0.30
2023-03-28T02:36:37.006Z,0.20
2023-03-28T02:39:16.687Z,0.20
2023-03-28T02:41:53.151Z,0.10
2023-03-28T02:44:35.324Z,0.30
2023-03-28T02:47:02.888Z,0.30
2023-03-28T02:49:50.696Z,0.20
2023-03-28T02:52:36.107Z,0.10
2023-03-28T02:55:03.685Z,0.10
2023-03-28T02:57:37.089Z,0.30
2023-03-28T03:00:10.137Z,0.30
2023-03-28T03:02:37.736Z,0.50
2023-03-28T03:05:05.188Z,0.40
2023-03-28T03:07:32.771Z,0.30
2023-03-28T03:10:00.295Z,0.10
2023-03-28T03:12:27.802Z,0.00
2023-03-28T03:14:55.878Z,0.00
2023-03-28T03:17:23.413Z,-0.10
2023-03-28T03:19:50.976Z,-0.20
2023-03-28T03:22:20.830Z,-0.20
2023-03-28T03:24:46.064Z,-0.20
2023-03-28T03:27:13.600Z,-0.30
2023-03-28T03:29:41.675Z,-0.30
2023-03-28T03:32:09.206Z,-0.30
2023-03-28T03:34:36.739Z,-0.10
2023-03-28T03:37:07.319Z,-0.10
2023-03-28T03:39:34.816Z,-0.10
2023-03-28T03:42:02.369Z,-0.20
2023-03-28T03:44:29.971Z,0.00
2023-03-28T03:46:57.499Z,0.00
2023-03-28T03:49:25.022Z,-0.10
2023-03-28T03:51:52.606Z,-0.20
2023-03-28T03:54:20.132Z,-0.20
2023-03-28T03:56:47.703Z,-0.30
2023-03-28T03:59:15.251Z,-0.30
2023-03-28T04:01:42.792Z,-0.10
2023-03-28T04:04:10.305Z,0.10
2023-03-28T04:06:40.402Z,0.10
2023-03-28T04:09:10.676Z,-0.10
2023-03-28T04:11:38.204Z,-0.20
2023-03-28T04:14:05.797Z,-0.40
2023-03-28T04:16:40.962Z,-0.50
2023-03-28T04:19:00.837Z,-0.50
2023-03-28T04:21:28.392Z,-0.60
2023-03-28T04:23:55.926Z,-0.70
2023-03-28T04:40:46.837Z,-0.90
2023-03-28T04:43:14.371Z,-0.90
2023-03-28T04:45:41.958Z,-1.00
2023-03-28T04:48:09.548Z,-0.70
2023-03-28T04:50:37.025Z,-0.70
2023-03-28T04:53:04.575Z,-0.80
2023-03-28T04:55:32.143Z,-0.80
2023-03-28T04:57:59.667Z,-0.90
2023-03-28T05:00:27.195Z,-0.90
2023-03-28T05:02:54.955Z,-1.00
2023-03-28T05:05:22.459Z,-1.00
2023-03-28T05:07:50.005Z,-1.00
2023-03-28T05:10:17.556Z,-1.10
2023-03-28T05:12:45.091Z,-1.10
2023-03-28T05:15:21.273Z,-1.10
2023-03-28T05:17:40.294Z,-1.10
2023-03-28T05:20:10.567Z,-1.10
2023-03-28T05:22:38.116Z,-1.10
2023-03-28T05:25:05.678Z,-1.10
2023-03-28T05:27:33.211Z,-1.10
2023-03-28T05:30:00.745Z,-1.10
2023-03-28T05:32:28.492Z,-0.90
2023-03-28T05:34:55.836Z,-0.90
2023-03-28T05:37:23.400Z,-0.90
2023-03-28T05:39:50.925Z,-0.90
2023-03-28T05:42:18.476Z,-1.00
2023-03-28T05:44:46.002Z,-0.70
2023-03-28T05:47:13.554Z,-0.50
2023-03-28T05:49:41.084Z,-0.50
2023-03-28T05:52:08.629Z,-0.60
2023-03-28T05:54:36.262Z,-0.70
2023-03-28T05:57:03.805Z,-0.80
2023-03-28T05:59:31.303Z,-0.50
2023-03-28T06:01:58.880Z,-0.60
2023-03-28T06:04:26.413Z,-0.60
2023-03-28T06:06:53.928Z,-0.70
2023-03-28T06:09:21.479Z,-0.70
2023-03-28T06:11:49.016Z,-0.80
2023-03-28T06:14:16.548Z,-0.80
2023-03-28T06:16:44.189Z,-0.80
2023-03-28T06:19:17.874Z,-0.90
2023-03-28T06:21:39.230Z,-0.60
2023-03-28T06:24:06.804Z,-0.60
2023-03-28T06:26:34.348Z,-0.60
2023-03-28T06:29:01.918Z,-0.40
2023-03-28T06:31:29.569Z,-0.40
2023-03-28T06:33:57.063Z,-0.40
2023-03-28T06:36:24.611Z,-0.50
2023-03-28T06:38:52.259Z,-0.40
2023-03-28T06:41:19.696Z,-0.40
2023-03-28T06:43:47.255Z,-0.40
2023-03-28T06:46:14.849Z,-0.30
2023-03-28T06:48:42.352Z,-0.20
2023-03-28T06:51:09.897Z,-0.20
2023-03-28T06:53:37.423Z,-0.10
2023-03-28T06:56:04.969Z,0.00
2023-03-28T06:58:32.504Z,0.10
2023-03-28T07:01:00.217Z,0.20
2023-03-28T07:03:27.642Z,0.30
2023-03-28T07:05:55.116Z,0.30
2023-03-28T07:08:22.725Z,0.40
2023-03-28T07:10:50.206Z,0.60
2023-03-28T07:13:17.743Z,0.60
2023-03-28T07:15:45.321Z,0.70
2023-03-28T07:18:12.902Z,0.80
2023-03-28T07:20:40.452Z,0.90
2023-03-28T07:23:08.036Z,1.00
2023-03-28T07:25:35.572Z,1.00
2023-03-28T07:28:03.120Z,1.10
2023-03-28T07:30:30.664Z,1.20
2023-03-28T07:33:11.017Z,1.30
2023-03-28T07:35:25.753Z,1.40
2023-03-28T07:37:53.411Z,1.50
2023-03-28T07:40:20.919Z,1.60
2023-03-28T07:42:48.456Z,1.70
2023-03-28T07:45:16.031Z,1.80
2023-03-28T07:47:43.554Z,2.00
2023-03-28T07:50:11.070Z,2.10
2023-03-28T07:52:38.613Z,2.30
2023-03-28T07:55:06.167Z,2.40
2023-03-28T07:57:33.742Z,2.40
2023-03-28T08:00:01.296Z,2.70
2023-03-28T08:02:29.143Z,2.80
2023-03-28T08:04:56.379Z,2.90
2023-03-28T08:07:24.442Z,3.00
2023-03-28T08:09:51.975Z,3.00
2023-03-28T08:12:19.540Z,3.10
2023-03-28T08:14:47.115Z,3.20
2023-03-28T08:17:14.648Z,3.30
2023-03-28T08:19:42.214Z,3.50
2023-03-28T08:22:09.797Z,3.60
2023-03-28T08:24:37.355Z,3.70
2023-03-28T08:27:04.860Z,3.80
2023-03-28T08:29:32.419Z,3.90
2023-03-28T08:31:59.955Z,4.00
2023-03-28T08:34:27.479Z,4.20
2023-03-28T08:36:55.045Z,4.40
2023-03-28T08:39:22.589Z,4.40
2023-03-28T08:41:50.142Z,4.60
2023-03-28T08:44:38.896Z,4.70
2023-03-28T08:47:12.135Z,4.80
2023-03-28T08:49:42.370Z,4.90
2023-03-28T08:52:09.881Z,5.10
2023-03-28T08:54:46.137Z,5.20
2023-03-28T08:57:16.396Z,5.30
2023-03-28T08:59:46.526Z,5.50
2023-03-28T09:02:19.721Z,5.60
2023-03-28T09:04:47.275Z,5.70
2023-03-28T09:07:35.885Z,5.90
2023-03-28T09:10:14.908Z,6.00
2023-03-28T09:13:00.618Z,6.20
2023-03-28T09:15:28.183Z,6.40
2023-03-28T09:18:07.602Z,6.50
2023-03-28T09:20:43.096Z,6.60
2023-03-28T09:23:26.769Z,6.70
2023-03-28T09:25:58.352Z,6.70
2023-03-28T09:28:27.288Z,6.80
2023-03-28T09:30:54.837Z,6.90
2023-03-28T09:33:30.775Z,6.90
2023-03-28T09:35:58.332Z,7.00
2023-03-28T09:38:25.832Z,7.20
2023-03-28T09:40:53.392Z,7.30
2023-03-28T09:43:26.943Z,7.30
2023-03-28T09:46:06.424Z,7.30
2023-03-28T09:48:33.936Z,7.40
2023-03-28T09:51:01.615Z,7.50
2023-03-28T09:53:33.151Z,7.50
2023-03-28T09:56:07.989Z,7.60
2023-03-28T09:58:47.518Z,7.60
2023-03-28T10:01:23.795Z,7.80
2023-03-28T10:03:54.277Z,7.90
2023-03-28T10:06:24.798Z,7.80
2023-03-28T10:08:52.307Z,7.90
2023-03-28T10:11:19.907Z,7.80
2023-03-28T10:13:50.220Z,8.10
2023-03-28T10:16:23.754Z,8.10
2023-03-28T10:18:51.256Z,8.20
2023-03-28T10:21:18.792Z,8.20
2023-03-28T10:23:46.334Z,8.20
2023-03-28T10:26:13.920Z,8.40
2023-03-28T10:28:41.454Z,8.50
2023-03-28T10:31:09.022Z,8.50
2023-03-28T10:33:36.543Z,8.50
2023-03-28T10:36:06.631Z,8.50
2023-03-28T10:38:49.196Z,8.60
2023-03-28T10:41:24.519Z,8.60
2023-03-28T10:43:49.940Z,8.70
2023-03-28T10:46:35.223Z,8.70
2023-03-28T10:49:05.608Z,8.70
2023-03-28T10:51:33.124Z,8.80
2023-03-28T10:54:15.260Z,8.80
2023-03-28T10:57:00.705Z,8.80
2023-03-28T10:59:40.095Z,8.90
2023-03-28T11:02:07.710Z,8.90
2023-03-28T11:04:37.890Z,8.90
2023-03-28T11:07:08.380Z,8.90
2023-03-28T11:09:35.913Z,9.10
2023-03-28T11:12:22.995Z,9.10
2023-03-28T11:14:39.855Z,9.20
2023-03-28T11:17:28.302Z,9.10
2023-03-28T11:20:10.523Z,9.10
2023-03-28T11:22:38.054Z,9.20
2023-03-28T11:25:29.564Z,9.30
2023-03-28T11:28:21.279Z,9.60
2023-03-28T11:30:48.835Z,9.70
2023-03-28T11:33:18.801Z,9.70
2023-03-28T11:35:46.415Z,9.70
2023-03-28T11:38:25.619Z,9.70
2023-03-28T11:40:53.150Z,9.70
2023-03-28T11:43:29.253Z,9.80
2023-03-28T11:45:56.844Z,9.80
2023-03-28T11:48:24.357Z,10.10
2023-03-28T11:51:12.483Z,10.10
2023-03-28T11:53:48.633Z,10.10
2023-03-28T11:56:24.576Z,10.20
2023-03-28T11:58:52.121Z,10.20
2023-03-28T12:01:19.744Z,10.30
2023-03-28T12:03:49.737Z,10.30
2023-03-28T12:06:35.229Z,10.40
2023-03-28T12:09:11.364Z,10.40
2023-03-28T12:11:50.979Z,10.50
2023-03-28T12:14:27.159Z,10.50
2023-03-28T12:16:54.810Z,10.70
2023-03-28T12:19:40.407Z,11.00
2023-03-28T12:22:07.917Z,10.90
2023-03-28T12:24:40.826Z,10.80
2023-03-28T12:27:09.375Z,10.70
2023-03-28T12:29:48.530Z,10.70
2023-03-28T12:32:43.113Z,10.70
2023-03-28T12:35:21.981Z,10.70
2023-03-28T12:37:51.962Z,10.80
2023-03-28T12:40:25.271Z,10.80
2023-03-28T12:42:52.801Z,10.80
2023-03-28T12:45:26.300Z,10.90
2023-03-28T12:47:53.905Z,10.80
2023-03-28T12:50:27.037Z,10.80
2023-03-28T12:52:54.601Z,10.70
2023-03-28T12:55:25.152Z,10.70
2023-03-28T12:57:55.127Z,10.80
2023-03-28T13:00:22.721Z,10.80
2023-03-28T13:02:58.727Z,10.80
2023-03-28T13:05:26.229Z,10.70
2023-03-28T13:08:02.825Z,10.60
2023-03-28T13:10:45.170Z,10.70
2023-03-28T13:13:33.619Z,10.70
2023-03-28T13:16:01.182Z,10.70
2023-03-28T13:18:28.687Z,10.70
2023-03-28T13:20:56.238Z,10.70
2023-03-28T13:23:29.233Z,10.70
2023-03-28T13:25:56.766Z,10.70
2023-03-28T13:28:33.236Z,10.70
2023-03-28T13:31:12.499Z,10.80
2023-03-28T13:33:42.226Z,10.90
2023-03-28T13:36:10.310Z,11.00
2023-03-28T13:38:46.603Z,11.10
2023-03-28T13:41:38.173Z,11.30
2023-03-28T13:44:05.737Z,11.30
2023-03-28T13:46:39.248Z,11.50
2023-03-28T13:49:24.928Z,11.50
2023-03-28T13:51:52.514Z,11.40
2023-03-28T13:54:20.050Z,11.40
2023-03-28T13:56:47.640Z,11.60
2023-03-28T13:59:17.793Z,11.60
2023-03-28T14:01:48.397Z,11.70
2023-03-28T14:04:21.549Z,11.60
2023-03-28T14:06:49.083Z,11.50
2023-03-28T14:09:19.043Z,11.30
2023-03-28T14:11:46.595Z,11.20
2023-03-28T14:14:25.592Z,11.00
2023-03-28T14:16:53.690Z,10.90
2023-03-28T14:19:21.997Z,10.90
2023-03-28T14:21:48.681Z,10.90
2023-03-28T14:24:19.174Z,10.90
2023-03-28T14:26:46.706Z,10.90
2023-03-28T14:29:14.248Z,10.90
2023-03-28T14:31:41.848Z,11.00
2023-03-28T14:34:27.040Z,11.10
2023-03-28T14:37:03.015Z,11.10
2023-03-28T14:39:30.589Z,11.20
2023-03-28T14:41:58.112Z,11.20
2023-03-28T14:44:25.699Z,11.20
2023-03-28T14:46:53.229Z,11.20
2023-03-28T14:49:20.775Z,11.20
2023-03-28T14:51:48.342Z,11.10
2023-03-28T14:54:15.896Z,11.10
2023-03-28T14:56:43.512Z,11.20
2023-03-28T14:59:11.743Z,11.20
2023-03-28T15:01:39.364Z,11.20
2023-03-28T15:04:06.822Z,11.20
2023-03-28T15:06:34.383Z,11.20
2023-03-28T15:09:01.923Z,11.00
2023-03-28T15:11:32.024Z,11.20
2023-03-28T15:14:02.560Z,11.20
2023-03-28T15:16:30.117Z,11.00
2023-03-28T15:19:09.505Z,11.00
2023-03-28T15:21:36.850Z,10.90
2023-03-28T15:24:04.575Z,10.90
2023-03-28T15:26:35.167Z,10.90
2023-03-28T15:29:02.702Z,10.90
2023-03-28T15:31:30.332Z,10.90
2023-03-28T15:33:57.820Z,10.90
2023-03-28T15:36:25.363Z,10.80
2023-03-28T15:38:52.888Z,10.90
2023-03-28T15:41:26.261Z,10.90
2023-03-28T15:43:56.750Z,10.80
2023-03-28T15:46:29.997Z,10.70
2023-03-28T15:48:57.543Z,10.50
2023-03-28T15:51:25.069Z,10.70
2023-03-28T15:53:52.607Z,10.50
2023-03-28T15:56:23.106Z,10.50
2023-03-28T15:58:50.647Z,10.40
2023-03-28T16:01:21.115Z,10.30
2023-03-28T16:03:48.767Z,10.20
2023-03-28T16:06:30.947Z,10.20
2023-03-28T16:08:46.152Z,10.30
2023-03-28T16:11:16.630Z,10.30
2023-03-28T16:13:44.161Z,10.30
2023-03-28T16:16:11.977Z,10.20
2023-03-28T16:18:39.506Z,10.20
2023-03-28T16:21:07.045Z,10.30
2023-03-28T16:23:34.578Z,10.20
2023-03-28T16:26:02.345Z,10.20
2023-03-28T16:28:29.699Z,10.20
2023-03-28T16:30:57.213Z,10.20
2023-03-28T16:33:24.790Z,10.20
2023-03-28T16:35:52.361Z,10.40
2023-03-28T16:38:19.861Z,10.40
2023-03-28T16:40:47.437Z,10.30
2023-03-28T16:43:14.951Z,10.20
2023-03-28T16:45:42.535Z,10.20
2023-03-28T16:48:10.113Z,10.10
2023-03-28T16:50:37.628Z,10.00
2023-03-28T16:53:05.118Z,10.20
2023-03-28T16:55:32.726Z,10.40
2023-03-28T16:58:00.243Z,10.30
2023-03-28T17:00:27.773Z,10.20
2023-03-28T17:02:55.439Z,10.10
2023-03-28T17:05:22.889Z,10.00
2023-03-28T17:07:50.414Z,9.90
2023-03-28T17:10:17.980Z,9.80
2023-03-28T17:12:45.528Z,9.80
2023-03-28T17:15:13.051Z,9.70
2023-03-28T17:17:41.183Z,9.70
2023-03-28T17:20:08.742Z,9.90
2023-03-28T17:22:36.274Z,9.90
2023-03-28T17:25:03.826Z,9.80
2023-03-28T17:27:31.347Z,9.70
2023-03-28T17:29:58.891Z,9.70
2023-03-28T17:32:26.560Z,9.60
2023-03-28T17:34:54.048Z,9.60
2023-03-28T17:37:21.572Z,9.50
2023-03-28T17:39:49.148Z,9.50
2023-03-28T17:42:16.664Z,9.50
2023-03-28T17:44:44.214Z,9.50
2023-03-28T17:47:11.779Z,9.50
2023-03-28T17:49:39.314Z,9.70
2023-03-28T17:52:06.960Z,9.60
2023-03-28T17:54:34.431Z,9.80
2023-03-28T17:57:02.006Z,9.80
2023-03-28T17:59:29.508Z,9.90
2023-03-28T18:01:57.100Z,9.80
2023-03-28T18:04:24.583Z,9.70
2023-03-28T18:06:52.102Z,9.60
2023-03-28T18:09:19.675Z,9.50
2023-03-28T18:11:47.195Z,9.40
2023-03-28T18:14:14.790Z,9.60
2023-03-28T18:16:42.497Z,9.60
2023-03-28T18:19:09.874Z,9.50
2023-03-28T18:21:37.397Z,9.40
2023-03-28T18:24:04.977Z,9.40
2023-03-28T18:26:32.501Z,9.30
2023-03-28T18:29:00.023Z,9.50
2023-03-28T18:31:28.489Z,9.50
2023-03-28T18:33:55.122Z,9.40
2023-03-28T18:36:22.684Z,9.30
2023-03-28T18:38:50.213Z,9.20
2023-03-28T18:41:17.749Z,9.20
2023-03-28T18:43:45.293Z,9.10
2023-03-28T18:46:16.339Z,9.10
2023-03-28T18:48:46.399Z,9.10
2023-03-28T18:51:14.151Z,9.00
2023-03-28T18:53:41.699Z,9.00
2023-03-28T18:56:09.234Z,9.20
2023-03-28T18:58:39.480Z,9.20
2023-03-28T19:01:07.334Z,9.10
2023-03-28T19:03:35.006Z,9.10
2023-03-28T19:06:02.652Z,9.10
2023-03-28T19:08:30.234Z,9.00
2023-03-28T19:10:57.767Z,9.20
2023-03-28T19:13:25.281Z,9.50
2023-03-28T19:15:59.180Z,9.40
2023-03-28T19:18:26.454Z,9.30
2023-03-28T19:20:53.983Z,9.20
2023-03-28T19:23:21.556Z,9.10
2023-03-28T19:25:49.099Z,9.00
2023-03-28T19:28:16.636Z,9.20
2023-03-28T19:30:44.246Z,9.10
2023-03-28T19:33:11.777Z,9.10
2023-03-28T19:35:39.265Z,9.00
2023-03-28T19:38:06.826Z,9.00
2023-03-28T19:40:34.363Z,9.00
2023-03-28T19:43:01.916Z,8.90
2023-03-28T19:45:29.500Z,9.10
2023-03-28T19:47:57.195Z,9.10
2023-03-28T19:50:24.558Z,9.00
2023-03-28T19:52:52.138Z,8.90
2023-03-28T19:55:19.676Z,9.10
2023-03-28T19:57:47.209Z,9.10
2023-03-28T20:00:14.842Z,9.00
2023-03-28T20:02:42.557Z,9.00
2023-03-28T20:05:10.045Z,9.20
2023-03-28T20:07:37.581Z,9.50
2023-03-28T20:10:05.164Z,9.40
2023-03-28T20:12:32.684Z,9.30
2023-03-28T20:15:00.216Z,9.10
2023-03-28T20:17:27.800Z,9.00
2023-03-28T20:19:55.359Z,8.90
2023-03-28T20:22:22.875Z,8.80
2023-03-28T20:24:50.463Z,8.70
2023-03-28T20:27:18.008Z,8.70
2023-03-28T20:29:45.532Z,8.60
2023-03-28T20:32:13.160Z,8.60
2023-03-28T20:34:40.663Z,8.50
2023-03-28T20:37:08.181Z,8.50
2023-03-28T20:39:35.743Z,8.40
2023-03-28T20:42:03.273Z,8.40
2023-03-28T20:44:30.797Z,8.50
2023-03-28T20:46:58.448Z,8.50
2023-03-28T20:49:25.928Z,8.50
2023-03-28T20:51:53.454Z,8.50
2023-03-28T20:54:21.075Z,8.50
2023-03-28T20:56:48.645Z,8.50
2023-03-28T20:59:16.162Z,8.50
2023-03-28T21:01:43.731Z,8.50
2023-03-28T21:04:11.255Z,8.50
2023-03-28T21:06:38.774Z,8.40
2023-03-28T21:09:06.348Z,8.50
2023-03-28T21:11:33.873Z,8.70
2023-03-28T21:14:01.407Z,8.70
2023-03-28T21:16:29.043Z,8.60
2023-03-28T21:18:56.528Z,8.50
2023-03-28T21:21:24.028Z,8.70
2023-03-28T21:23:51.603Z,8.60
2023-03-28T21:26:19.127Z,8.70
2023-03-28T21:28:46.656Z,8.60
2023-03-28T21:31:14.946Z,8.50
2023-03-28T21:33:42.483Z,8.40
2023-03-28T21:36:10.125Z,8.30
2023-03-28T21:38:37.599Z,8.20
2023-03-28T21:41:05.132Z,8.30
2023-03-28T21:43:32.655Z,8.20
2023-03-28T21:46:00.281Z,8.40
2023-03-28T21:48:27.770Z,8.30
2023-03-28T21:50:55.296Z,8.10
2023-03-28T21:53:22.985Z,8.20
2023-03-28T21:55:50.494Z,8.10
2023-03-28T21:58:18.049Z,8.00
2023-03-28T22:00:45.616Z,8.10
2023-03-28T22:03:13.248Z,8.30
2023-03-28T22:05:42.636Z,8.20
2023-03-28T22:08:08.535Z,8.00
2023-03-28T22:10:36.149Z,7.90
2023-03-28T22:13:03.675Z,7.80
2023-03-28T22:15:31.229Z,7.70
2023-03-28T22:17:58.869Z,7.60
2023-03-28T22:20:26.369Z,7.50
2023-03-28T22:22:53.851Z,7.50
2023-03-28T22:25:21.409Z,7.50
2023-03-28T22:27:49.005Z,7.40
2023-03-28T22:30:16.532Z,7.40
2023-03-28T22:32:44.160Z,7.40
2023-03-28T22:35:11.690Z,7.30
2023-03-28T22:37:39.206Z,7.30
2023-03-28T22:40:09.657Z,7.30
2023-03-28T22:42:37.499Z,7.30
2023-03-28T22:45:05.036Z,7.30
2023-03-28T22:47:32.602Z,7.50
2023-03-28T22:50:00.185Z,7.50
2023-03-28T22:52:27.648Z,7.50
2023-03-28T22:54:55.173Z,7.40
2023-03-28T22:57:22.811Z,7.40
2023-03-28T22:59:50.292Z,7.40
2023-03-28T23:02:17.825Z,7.30
2023-03-28T23:04:47.962Z,7.50
2023-03-28T23:07:15.534Z,7.50
2023-03-28T23:09:43.062Z,7.40
2023-03-28T23:12:10.601Z,7.40
2023-03-28T23:14:38.139Z,7.30
2023-03-28T23:17:05.653Z,7.30
2023-03-28T23:19:33.234Z,7.30
2023-03-28T23:22:00.743Z,7.30
2023-03-28T23:24:28.267Z,7.20
2023-03-28T23:26:55.840Z,7.20
2023-03-28T23:29:23.433Z,7.20
2023-03-28T23:31:51.014Z,7.50
2023-03-28T23:34:18.534Z,7.70
2023-03-28T23:36:46.089Z,7.70
2023-03-28T23:39:13.591Z,7.80
2023-03-28T23:41:41.149Z,7.70
2023-03-28T23:44:08.733Z,7.60
2023-03-28T23:46:36.283Z,7.60
2023-03-28T23:49:03.830Z,7.40
2023-03-28T23:51:31.386Z,7.40
2023-03-28T23:53:58.894Z,7.40
2023-03-28T23:56:26.422Z,7.30
2023-03-28T23:58:54.033Z,7.20
